createdAt,value
2018-05-03T00:01:22.433Z,13.72
2018-05-03T00:03:50.702Z,13.74
2018-05-03T00:06:19.044Z,13.76
2018-05-03T00:08:47.292Z,13.78
2018-05-03T00:11:15.562Z,13.75
2018-05-03T00:13:43.845Z,13.74
2018-05-03T00:16:12.103Z,13.76
2018-05-03T00:18:40.378Z,13.76
2018-05-03T00:21:08.652Z,13.78
2018-05-03T00:23:37.761Z,13.75
2018-05-03T00:26:06.787Z,13.76
2018-05-03T00:28:35.044Z,13.76
2018-05-03T00:31:03.317Z,13.75
2018-05-03T00:33:31.581Z,13.75
2018-05-03T00:35:59.841Z,13.71
2018-05-03T00:38:28.920Z,13.68
2018-05-03T00:40:57.995Z,13.65
2018-05-03T00:43:26.258Z,13.64
2018-05-03T00:45:54.515Z,13.58
2018-05-03T00:48:22.776Z,13.57
2018-05-03T00:50:51.101Z,13.53
2018-05-03T00:53:20.120Z,13.51
2018-05-03T00:55:49.226Z,13.42
2018-05-03T00:58:18.243Z,13.37
2018-05-03T01:00:47.260Z,13.32
2018-05-03T01:03:15.523Z,13.25
2018-05-03T01:05:44.547Z,13.23
2018-05-03T01:08:13.609Z,13.18
2018-05-03T01:10:41.867Z,13.14
2018-05-03T01:13:10.145Z,13.12
2018-05-03T01:15:38.413Z,13.12
2018-05-03T01:18:06.681Z,13.05
2018-05-03T01:20:34.932Z,13.01
2018-05-03T01:23:03.188Z,13.00
2018-05-03T01:25:32.216Z,12.97
2018-05-03T01:28:00.479Z,12.99
2018-05-03T01:30:29.534Z,12.97
2018-05-03T01:32:57.798Z,12.98
2018-05-03T01:38:34.443Z,12.91
2018-05-03T01:41:02.822Z,12.89
2018-05-03T01:43:31.835Z,12.91
2018-05-03T01:46:00.188Z,12.86
2018-05-03T01:48:29.438Z,12.88
2018-05-03T01:50:57.741Z,12.91
2018-05-03T01:53:26.012Z,12.91
2018-05-03T01:55:54.491Z,12.88
2018-05-03T01:58:23.579Z,12.80
2018-05-03T02:00:51.882Z,12.75
2018-05-03T02:03:20.124Z,12.76
2018-05-03T02:05:48.384Z,12.70
2018-05-03T02:08:16.682Z,12.68
2018-05-03T02:10:44.933Z,12.68
2018-05-03T02:13:13.199Z,12.69
2018-05-03T02:15:41.510Z,12.73
2018-05-03T02:18:09.767Z,12.79
2018-05-03T02:20:38.062Z,12.80
2018-05-03T02:23:06.328Z,12.80
2018-05-03T02:25:34.598Z,12.83
2018-05-03T02:28:03.816Z,12.79
2018-05-03T02:30:32.098Z,12.80
2018-05-03T02:33:00.358Z,12.72
2018-05-03T02:35:28.636Z,12.68
2018-05-03T02:37:57.005Z,12.65
2018-05-03T02:40:25.290Z,12.63
2018-05-03T02:42:53.567Z,12.57
2018-05-03T02:45:21.828Z,12.52
2018-05-03T02:47:50.116Z,12.48
2018-05-03T02:50:18.470Z,12.45
2018-05-03T02:52:46.834Z,12.41
2018-05-03T02:55:15.091Z,12.36
2018-05-03T02:58:07.612Z,12.34
2018-05-03T03:00:58.803Z,12.31
2018-05-03T03:03:50.124Z,12.28
2018-05-03T03:06:41.832Z,12.24
2018-05-03T03:09:33.491Z,12.23
2018-05-03T03:16:06.084Z,12.20
2018-05-03T03:18:57.897Z,12.20
2018-05-03T03:21:49.737Z,12.16
2018-05-03T03:24:38.832Z,12.12
2018-05-03T03:27:30.592Z,12.08
2018-05-03T03:30:16.660Z,12.01
2018-05-03T03:33:02.887Z,11.93
2018-05-03T03:36:06.900Z,11.91
2018-05-03T03:38:53.852Z,11.82
2018-05-03T03:41:37.187Z,11.77
2018-05-03T03:44:22.926Z,11.73
2018-05-03T03:46:51.177Z,11.66
2018-05-03T03:49:19.445Z,11.61
2018-05-03T03:51:48.496Z,11.54
2018-05-03T03:54:16.823Z,11.48
2018-05-03T03:56:45.104Z,11.41
2018-05-03T03:59:13.418Z,11.40
2018-05-03T04:01:41.666Z,11.37
2018-05-03T04:04:09.969Z,11.36
2018-05-03T04:06:38.230Z,11.34
2018-05-03T04:09:06.488Z,11.26
2018-05-03T04:11:35.508Z,11.25
2018-05-03T04:14:03.858Z,11.19
2018-05-03T04:16:32.131Z,11.11
2018-05-03T04:19:18.408Z,11.07
2018-05-03T04:22:05.908Z,11.05
2018-05-03T04:24:51.700Z,10.98
2018-05-03T04:27:19.985Z,10.98
2018-05-03T04:29:48.237Z,10.97
2018-05-03T04:32:16.495Z,10.98
2018-05-03T04:34:45.519Z,10.93
2018-05-03T04:37:13.806Z,10.96
2018-05-03T04:39:42.882Z,10.92
2018-05-03T04:42:11.145Z,10.96
2018-05-03T04:44:39.415Z,10.96
2018-05-03T04:47:07.692Z,10.92
2018-05-03T04:49:35.956Z,10.95
2018-05-03T04:52:04.984Z,10.99
2018-05-03T04:54:34.031Z,11.00
2018-05-03T04:57:02.441Z,11.04
2018-05-03T05:02:24.444Z,11.08
2018-05-03T05:04:52.711Z,11.09
2018-05-03T05:07:21.142Z,11.14
2018-05-03T05:09:49.407Z,11.21
2018-05-03T05:12:17.712Z,11.28
2018-05-03T05:14:46.753Z,11.30
2018-05-03T05:17:15.023Z,11.37
2018-05-03T05:19:44.080Z,11.45
2018-05-03T05:22:12.363Z,11.51
2018-05-03T05:24:40.804Z,11.60
2018-05-03T05:27:09.854Z,11.66
2018-05-03T05:29:38.169Z,11.82
2018-05-03T05:32:06.459Z,11.88
2018-05-03T05:34:34.743Z,11.92
2018-05-03T05:37:03.040Z,12.04
2018-05-03T05:39:31.280Z,12.14
2018-05-03T05:41:59.547Z,12.20
2018-05-03T05:44:28.565Z,12.38
2018-05-03T05:46:57.603Z,12.52
2018-05-03T05:49:25.865Z,12.58
2018-05-03T05:51:54.903Z,12.67
2018-05-03T05:54:23.155Z,12.98
2018-05-03T05:56:52.239Z,13.19
2018-05-03T05:59:20.509Z,13.36
2018-05-03T06:01:48.784Z,13.65
2018-05-03T06:04:17.187Z,14.04
2018-05-03T06:06:45.387Z,13.95
2018-05-03T06:09:13.655Z,14.26
2018-05-03T06:11:41.936Z,14.60
2018-05-03T06:14:10.191Z,14.46
2018-05-03T06:16:39.251Z,14.51
2018-05-03T06:19:07.520Z,14.82
2018-05-03T06:21:35.777Z,15.14
2018-05-03T06:24:04.048Z,15.38
2018-05-03T06:26:33.081Z,15.61
2018-05-03T06:29:02.112Z,15.76
2018-05-03T06:31:30.399Z,15.82
2018-05-03T06:33:59.428Z,16.06
2018-05-03T06:36:27.751Z,16.48
2018-05-03T06:38:56.051Z,16.60
2018-05-03T06:41:24.278Z,16.63
2018-05-03T06:43:52.566Z,16.48
2018-05-03T06:46:20.859Z,16.66
2018-05-03T06:48:49.884Z,16.66
2018-05-03T06:51:18.182Z,16.88
2018-05-03T06:53:46.456Z,17.26
2018-05-03T06:56:14.828Z,17.86
2018-05-03T06:58:43.906Z,17.83
2018-05-03T07:01:12.175Z,17.87
2018-05-03T07:03:40.471Z,17.88
2018-05-03T07:06:08.726Z,17.95
2018-05-03T07:08:37.000Z,18.07
2018-05-03T07:11:06.031Z,18.25
2018-05-03T07:13:34.305Z,18.56
2018-05-03T07:16:02.560Z,18.61
2018-05-03T07:18:30.831Z,19.26
2018-05-03T07:20:59.109Z,19.33
2018-05-03T07:23:27.347Z,19.49
2018-05-03T07:25:56.387Z,19.48
2018-05-03T07:28:24.645Z,19.34
2018-05-03T07:30:53.681Z,19.23
2018-05-03T07:33:21.951Z,19.75
2018-05-03T07:35:50.988Z,19.85
2018-05-03T07:38:19.258Z,19.48
2018-05-03T07:40:47.658Z,19.50
2018-05-03T07:43:15.821Z,19.80
2018-05-03T07:45:45.053Z,19.90
2018-05-03T07:48:13.314Z,20.32
2018-05-03T07:50:42.415Z,19.90
2018-05-03T07:53:10.698Z,20.07
2018-05-03T07:55:38.964Z,19.44
2018-05-03T07:58:07.318Z,19.96
2018-05-03T08:00:35.605Z,20.25
2018-05-03T08:03:03.935Z,20.29
2018-05-03T08:05:32.176Z,20.00
2018-05-03T08:08:01.192Z,20.66
2018-05-03T08:10:29.476Z,20.96
2018-05-03T08:12:58.583Z,20.16
2018-05-03T08:15:27.609Z,20.46
2018-05-03T08:17:55.870Z,20.30
2018-05-03T08:20:24.888Z,20.12
2018-05-03T08:22:53.927Z,19.82
2018-05-03T08:25:22.196Z,20.70
2018-05-03T08:27:50.467Z,20.74
2018-05-03T08:30:18.728Z,20.73
2018-05-03T08:32:46.993Z,20.80
2018-05-03T08:35:15.265Z,20.84
2018-05-03T08:37:43.653Z,21.30
2018-05-03T08:40:11.924Z,21.51
2018-05-03T08:42:40.963Z,21.79
2018-05-03T08:45:09.221Z,21.87
2018-05-03T08:47:38.263Z,22.09
2018-05-03T08:50:06.566Z,22.44
2018-05-03T08:52:34.823Z,22.43
2018-05-03T08:55:03.157Z,22.15
2018-05-03T08:57:31.371Z,21.85
2018-05-03T08:59:59.618Z,22.13
2018-05-03T09:02:27.893Z,21.86
2018-05-03T09:04:56.146Z,22.77
2018-05-03T09:07:25.193Z,22.84
2018-05-03T09:09:53.439Z,22.39
2018-05-03T09:12:21.691Z,22.48
2018-05-03T09:14:49.954Z,23.23
2018-05-03T09:17:18.211Z,23.26
2018-05-03T09:19:46.546Z,23.60
2018-05-03T09:22:14.925Z,23.50
2018-05-03T09:24:43.248Z,23.24
2018-05-03T09:27:11.530Z,23.90
2018-05-03T09:29:39.802Z,22.76
2018-05-03T09:32:08.080Z,23.71
2018-05-03T09:34:36.332Z,24.14
2018-05-03T09:37:04.575Z,24.39
2018-05-03T09:39:32.863Z,24.50
2018-05-03T09:42:01.111Z,24.03
2018-05-03T09:44:30.221Z,23.82
2018-05-03T09:46:58.457Z,23.52
2018-05-03T09:49:26.694Z,23.95
2018-05-03T09:51:54.966Z,23.77
2018-05-03T09:54:23.237Z,23.86
2018-05-03T09:56:51.495Z,24.46
2018-05-03T09:59:19.844Z,23.95
2018-05-03T10:01:48.164Z,24.01
2018-05-03T10:04:17.196Z,23.50
2018-05-03T10:06:45.504Z,24.00
2018-05-03T10:09:13.798Z,24.19
2018-05-03T10:11:42.053Z,24.94
2018-05-03T10:14:11.160Z,24.61
2018-05-03T10:16:40.207Z,24.74
2018-05-03T10:19:08.471Z,24.29
2018-05-03T10:21:36.756Z,24.21
2018-05-03T10:24:05.865Z,24.07
2018-05-03T10:26:34.869Z,24.08
2018-05-03T10:29:03.131Z,24.15
2018-05-03T10:31:31.408Z,23.89
2018-05-03T10:33:59.647Z,23.93
2018-05-03T10:36:27.904Z,23.98
2018-05-03T10:38:56.937Z,24.21
2018-05-03T10:41:25.187Z,23.82
2018-05-03T10:43:53.458Z,23.01
2018-05-03T10:46:21.909Z,23.87
2018-05-03T10:48:50.207Z,24.59
2018-05-03T10:51:19.281Z,24.93
2018-05-03T10:53:47.543Z,25.12
2018-05-03T10:56:17.053Z,25.23
2018-05-03T10:58:45.334Z,25.00
2018-05-03T11:01:13.666Z,25.32
2018-05-03T11:03:41.939Z,24.84
2018-05-03T11:06:10.212Z,25.26
2018-05-03T11:08:38.482Z,25.29
2018-05-03T11:11:06.726Z,25.22
2018-05-03T11:13:34.987Z,25.70
2018-05-03T11:16:03.248Z,25.34
2018-05-03T11:18:31.503Z,25.26
2018-05-03T11:21:00.632Z,24.93
2018-05-03T11:23:29.742Z,25.20
2018-05-03T11:25:58.813Z,24.80
2018-05-03T11:28:27.004Z,24.42
2018-05-03T11:30:56.062Z,24.76
2018-05-03T11:33:24.309Z,24.88
2018-05-03T11:35:52.567Z,24.72
2018-05-03T11:38:20.829Z,24.99
2018-05-03T11:40:49.087Z,25.07
2018-05-03T11:43:18.217Z,24.65
2018-05-03T11:45:47.235Z,24.77
2018-05-03T11:48:15.525Z,24.59
2018-05-03T11:50:43.792Z,24.16
2018-05-03T11:53:12.832Z,24.45
2018-05-03T11:55:41.138Z,24.71
2018-05-03T11:58:09.402Z,24.86
2018-05-03T12:00:37.690Z,25.39
2018-05-03T12:03:05.961Z,25.42
2018-05-03T12:05:34.991Z,25.64
2018-05-03T12:08:03.377Z,25.36
2018-05-03T12:10:31.642Z,25.99
2018-05-03T12:13:00.681Z,26.12
2018-05-03T12:15:28.947Z,26.09
2018-05-03T12:17:57.975Z,26.13
2018-05-03T12:20:26.257Z,25.47
2018-05-03T12:22:54.548Z,24.43
2018-05-03T12:25:22.798Z,23.22
2018-05-03T12:27:51.047Z,22.70
2018-05-03T12:30:19.318Z,22.51
2018-05-03T12:32:47.680Z,22.17
2018-05-03T12:35:15.931Z,22.23
2018-05-03T12:37:44.288Z,22.84
2018-05-03T12:40:12.689Z,23.68
2018-05-03T12:42:40.941Z,23.93
2018-05-03T12:45:10.013Z,24.08
2018-05-03T12:47:38.264Z,24.31
2018-05-03T12:50:06.531Z,24.97
2018-05-03T12:52:34.804Z,24.67
2018-05-03T12:55:03.067Z,24.75
2018-05-03T12:57:31.317Z,25.06
2018-05-03T13:00:00.343Z,24.21
2018-05-03T13:02:28.609Z,23.46
2018-05-03T13:04:57.608Z,22.95
2018-05-03T13:07:26.650Z,23.51
2018-05-03T13:09:54.891Z,23.59
2018-05-03T13:12:23.172Z,23.64
2018-05-03T13:14:51.432Z,23.97
2018-05-03T13:17:19.710Z,23.65
2018-05-03T13:19:47.983Z,23.15
2018-05-03T13:22:17.019Z,22.37
2018-05-03T13:24:45.288Z,22.09
2018-05-03T13:27:14.563Z,21.83
2018-05-03T13:29:42.837Z,21.18
2018-05-03T13:32:11.125Z,20.81
2018-05-03T13:34:39.383Z,20.80
2018-05-03T13:37:07.642Z,20.87
2018-05-03T13:39:36.651Z,20.85
2018-05-03T13:42:04.904Z,20.65
2018-05-03T13:44:33.207Z,21.04
2018-05-03T13:47:01.451Z,21.56
2018-05-03T13:49:29.777Z,21.48
2018-05-03T13:51:58.033Z,21.54
2018-05-03T13:54:26.287Z,21.38
2018-05-03T13:56:55.310Z,21.40
2018-05-03T13:59:23.586Z,21.51
2018-05-03T14:01:52.608Z,21.51
2018-05-03T14:04:20.876Z,21.79
2018-05-03T14:06:49.978Z,22.41
2018-05-03T14:09:18.183Z,22.24
2018-05-03T14:11:47.234Z,22.03
2018-05-03T14:14:15.497Z,21.71
2018-05-03T14:16:43.776Z,21.55
2018-05-03T14:19:12.114Z,21.55
2018-05-03T14:21:40.309Z,21.56
2018-05-03T14:24:08.591Z,21.24
2018-05-03T14:26:36.937Z,21.53
2018-05-03T14:29:05.968Z,21.30
2018-05-03T14:31:34.269Z,21.32
2018-05-03T14:34:02.543Z,21.40
2018-05-03T14:36:30.804Z,21.18
2018-05-03T14:38:59.827Z,21.05
2018-05-03T14:41:28.142Z,20.79
2018-05-03T14:43:56.399Z,20.88
2018-05-03T14:46:25.439Z,20.83
2018-05-03T14:48:53.712Z,20.81
2018-05-03T14:51:21.986Z,20.71
2018-05-03T14:53:51.208Z,20.66
2018-05-03T14:56:19.563Z,20.42
2018-05-03T14:58:47.871Z,20.86
2018-05-03T15:01:16.172Z,20.88
2018-05-03T15:03:44.505Z,21.02
2018-05-03T15:06:12.774Z,21.01
2018-05-03T15:08:41.052Z,20.93
2018-05-03T15:11:09.380Z,20.98
2018-05-03T15:13:37.667Z,20.69
2018-05-03T15:16:05.964Z,20.74
2018-05-03T15:18:34.216Z,20.30
2018-05-03T15:21:02.496Z,20.13
2018-05-03T15:23:30.801Z,20.20
2018-05-03T15:25:59.073Z,20.24
2018-05-03T15:28:28.179Z,20.10
2018-05-03T15:30:57.192Z,19.83
2018-05-03T15:33:25.461Z,20.12
2018-05-03T15:35:53.728Z,19.99
2018-05-03T15:38:22.003Z,19.99
2018-05-03T15:40:50.248Z,19.61
2018-05-03T15:43:19.304Z,19.52
2018-05-03T15:45:47.564Z,19.34
2018-05-03T15:48:16.620Z,19.21
2018-05-03T15:50:44.944Z,19.05
2018-05-03T15:53:13.520Z,18.89
2018-05-03T15:55:41.925Z,18.92
2018-05-03T15:58:10.277Z,18.82
2018-05-03T16:00:38.656Z,18.88
2018-05-03T16:03:06.895Z,18.90
2018-05-03T16:05:35.947Z,18.90
2018-05-03T16:08:04.182Z,18.80
2018-05-03T16:10:32.447Z,18.64
2018-05-03T16:13:00.711Z,18.71
2018-05-03T16:15:28.991Z,18.76
2018-05-03T16:17:57.281Z,18.73
2018-05-03T16:20:25.594Z,18.73
2018-05-03T16:22:53.832Z,18.69
2018-05-03T16:25:22.857Z,18.65
2018-05-03T16:27:51.137Z,18.42
2018-05-03T16:30:20.158Z,18.57
2018-05-03T16:32:48.438Z,18.49
2018-05-03T16:35:17.503Z,18.60
2018-05-03T16:37:45.761Z,18.64
2018-05-03T16:40:14.084Z,18.54
2018-05-03T16:42:42.365Z,18.36
2018-05-03T16:45:10.650Z,18.32
2018-05-03T16:47:38.898Z,18.34
2018-05-03T16:50:07.951Z,18.40
2018-05-03T16:52:36.207Z,18.40
2018-05-03T16:55:04.456Z,18.42
2018-05-03T16:57:32.750Z,18.46
2018-05-03T17:00:00.999Z,18.33
2018-05-03T17:02:29.260Z,18.34
2018-05-03T17:04:57.615Z,18.28
2018-05-03T17:07:25.875Z,18.15
2018-05-03T17:09:54.123Z,18.04
2018-05-03T17:12:23.151Z,17.81
2018-05-03T17:14:51.422Z,17.77
2018-05-03T17:17:20.440Z,17.65
2018-05-03T17:19:48.729Z,17.41
2018-05-03T17:22:16.970Z,17.33
2018-05-03T17:24:45.235Z,17.25
2018-05-03T17:27:13.510Z,17.21
2018-05-03T17:29:41.755Z,17.14
2018-05-03T17:32:10.016Z,17.05
2018-05-03T17:34:38.299Z,17.02
2018-05-03T17:37:06.538Z,16.95
2018-05-03T17:39:35.578Z,16.97
2018-05-03T17:42:03.960Z,16.85
2018-05-03T17:44:33.170Z,16.84
2018-05-03T17:47:01.417Z,16.76
2018-05-03T17:49:31.214Z,16.68
2018-05-03T17:51:59.465Z,16.60
2018-05-03T17:54:28.545Z,16.59
2018-05-03T17:56:56.811Z,16.48
2018-05-03T17:59:25.076Z,16.49
2018-05-03T18:01:53.325Z,16.45
2018-05-03T18:04:22.382Z,16.36
2018-05-03T18:06:50.660Z,16.30
2018-05-03T18:09:25.472Z,16.33
2018-05-03T18:11:53.858Z,16.25
2018-05-03T18:14:22.883Z,16.21
2018-05-03T18:16:51.927Z,16.13
2018-05-03T18:19:20.188Z,16.09
2018-05-03T18:21:48.489Z,16.04
2018-05-03T18:24:16.771Z,16.00
2018-05-03T18:26:45.066Z,15.97
2018-05-03T18:29:13.542Z,15.89
2018-05-03T18:31:42.608Z,15.81
2018-05-03T18:34:10.937Z,15.74
2018-05-03T18:36:39.153Z,16.57
2018-05-03T18:39:07.499Z,17.66
2018-05-03T18:41:36.650Z,17.74
2018-05-03T18:44:04.953Z,17.57
2018-05-03T18:46:33.475Z,17.95
2018-05-03T18:49:01.722Z,18.28
2018-05-03T18:51:30.737Z,18.21
2018-05-03T18:53:59.126Z,18.60
2018-05-03T18:56:27.384Z,18.68
2018-05-03T18:58:56.433Z,18.63
2018-05-03T19:01:24.814Z,18.68
2018-05-03T19:03:53.138Z,18.91
2018-05-03T19:06:21.320Z,19.08
2018-05-03T19:08:49.599Z,19.19
2018-05-03T19:11:17.849Z,19.07
2018-05-03T19:13:46.911Z,19.06
2018-05-03T19:16:15.327Z,19.04
2018-05-03T19:18:43.784Z,18.70
2018-05-03T19:21:12.389Z,18.68
2018-05-03T19:23:41.669Z,18.67
2018-05-03T19:26:10.052Z,18.57
2018-05-03T19:28:38.336Z,18.39
2018-05-03T19:31:07.425Z,18.29
2018-05-03T19:33:35.762Z,18.51
2018-05-03T19:36:04.001Z,18.28
2018-05-03T19:38:32.287Z,18.08
2018-05-03T19:41:00.560Z,18.33
2018-05-03T19:43:28.883Z,18.21
2018-05-03T19:45:57.116Z,17.82
2018-05-03T19:48:25.425Z,17.23
2018-05-03T19:50:53.761Z,16.54
2018-05-03T19:53:22.057Z,16.17
2018-05-03T19:55:50.375Z,15.87
2018-05-03T19:58:19.474Z,15.48
2018-05-03T20:00:48.601Z,15.26
2018-05-03T20:03:16.847Z,15.06
2018-05-03T20:05:45.152Z,14.81
2018-05-03T20:08:13.524Z,14.69
2018-05-03T20:10:42.623Z,14.58
2018-05-03T20:13:10.907Z,14.44
2018-05-03T20:15:39.968Z,14.28
2018-05-03T20:18:08.244Z,14.16
2018-05-03T20:20:37.265Z,14.11
2018-05-03T20:23:05.527Z,14.03
2018-05-03T20:25:33.816Z,13.94
2018-05-03T20:28:02.078Z,13.83
2018-05-03T20:30:30.356Z,13.74
2018-05-03T20:32:58.613Z,13.69
2018-05-03T20:35:27.656Z,13.62
2018-05-03T20:37:55.950Z,13.51
2018-05-03T20:40:24.202Z,13.52
2018-05-03T20:42:52.467Z,13.43
2018-05-03T20:45:20.745Z,13.38
2018-05-03T20:47:49.069Z,13.33
2018-05-03T20:50:18.094Z,13.37
2018-05-03T20:52:46.380Z,13.31
2018-05-03T20:55:14.660Z,13.26
2018-05-03T20:57:43.816Z,13.16
2018-05-03T21:00:12.896Z,13.10
2018-05-03T21:02:41.280Z,13.04
2018-05-03T21:05:09.552Z,12.96
2018-05-03T21:07:38.588Z,12.91
2018-05-03T21:10:06.860Z,12.83
2018-05-03T21:12:35.196Z,12.75
2018-05-03T21:15:05.220Z,12.71
2018-05-03T21:17:34.514Z,12.69
2018-05-03T21:20:02.792Z,12.60
2018-05-03T21:22:31.063Z,12.55
2018-05-03T21:25:00.190Z,12.51
2018-05-03T21:27:29.225Z,12.50
2018-05-03T21:29:57.491Z,12.52
2018-05-03T21:32:25.743Z,12.50
2018-05-03T21:34:54.786Z,12.51
2018-05-03T21:37:23.069Z,12.50
2018-05-03T21:39:51.324Z,12.46
2018-05-03T21:42:19.631Z,12.43
2018-05-03T21:44:48.677Z,12.37
2018-05-03T21:47:16.962Z,12.30
2018-05-03T21:49:45.214Z,12.28
2018-05-03T21:52:13.556Z,12.21
2018-05-03T21:54:41.837Z,12.17
2018-05-03T21:57:10.127Z,12.17
2018-05-03T21:59:39.139Z,12.11
2018-05-03T22:02:07.391Z,12.06
2018-05-03T22:04:36.412Z,12.04
2018-05-03T22:07:04.677Z,12.02
2018-05-03T22:09:32.926Z,12.04
2018-05-03T22:12:01.184Z,12.00
2018-05-03T22:14:29.488Z,11.95
2018-05-03T22:16:57.739Z,11.88
2018-05-03T22:19:26.756Z,11.81
2018-05-03T22:21:55.783Z,11.74
2018-05-03T22:24:24.039Z,11.71
2018-05-03T22:26:52.297Z,11.71
2018-05-03T22:29:20.559Z,11.61
2018-05-03T22:31:48.839Z,11.55
2018-05-03T22:34:17.135Z,11.52
2018-05-03T22:36:45.412Z,11.44
2018-05-03T22:39:13.681Z,11.43
2018-05-03T22:41:41.953Z,11.36
2018-05-03T22:44:10.247Z,11.29
2018-05-03T22:46:38.504Z,11.25
2018-05-03T22:49:06.796Z,11.18
2018-05-03T22:51:35.056Z,11.15
2018-05-03T22:54:03.326Z,11.11
2018-05-03T22:56:32.350Z,11.06
2018-05-03T22:59:00.677Z,11.02
2018-05-03T23:01:29.027Z,11.00
2018-05-03T23:03:58.055Z,11.00
2018-05-03T23:06:26.338Z,10.95
2018-05-03T23:08:54.587Z,10.90
2018-05-03T23:11:23.703Z,10.85
2018-05-03T23:13:52.733Z,10.83
2018-05-03T23:16:20.989Z,10.81
2018-05-03T23:18:49.325Z,10.78
2018-05-03T23:21:17.616Z,10.73
2018-05-03T23:23:46.671Z,10.80
2018-05-03T23:26:14.967Z,10.78
2018-05-03T23:28:43.310Z,10.75
2018-05-03T23:31:11.599Z,10.74
2018-05-03T23:33:39.861Z,10.70
2018-05-03T23:36:08.996Z,10.68
2018-05-03T23:38:37.278Z,10.61
2018-05-03T23:41:06.446Z,10.63
2018-05-03T23:43:34.726Z,10.64
2018-05-03T23:46:02.984Z,10.60
2018-05-03T23:48:31.252Z,10.56
2018-05-03T23:51:00.284Z,10.53
2018-05-03T23:53:28.531Z,10.49
2018-05-03T23:55:57.566Z,10.52
2018-05-03T23:58:26.575Z,10.56
